Time;durP1;ratioP1;P1;durP2;ratioP2;P2;SDS_P1;SDS_P2;PMS_P1;PMS_P2;Temp;Humidity;BMP_temperature;BMP_pressure;BME280_temperature;BME280_humidity;BME280_pressure;Samples;Min_cycle;Max_cycle;Signal;HPM_P1;HPM_P2
2023/01/26 00:02:16;;;;;;;41.10;19.90;;;;;;;-1.41;80.32;102242.27;109952;1241;73484;-66
2023/01/26 00:04:44;;;;;;;40.20;18.50;;;;;;;-1.38;79.82;102237.83;109823;1242;59833;-66
2023/01/26 00:07:14;;;;;;;37.20;18.60;;;;;;;-1.37;79.15;102236.30;109964;1240;62103;-66
2023/01/26 00:09:42;;;;;;;38.50;17.80;;;;;;;-1.34;79.13;102239.89;109944;1240;73925;-65
2023/01/26 00:12:11;;;;;;;35.70;17.10;;;;;;;-1.38;78.97;102236.29;109936;1242;70720;-67
2023/01/26 00:14:49;;;;;;;37.30;16.60;;;;;;;-1.39;78.53;102237.82;109942;1242;68593;-66
2023/01/26 00:17:24;;;;;;;36.60;18.70;;;;;;;-1.43;78.62;102234.06;109968;1241;73764;-66
2023/01/26 00:19:57;;;;;;;31.30;15.50;;;;;;;-1.40;78.68;102232.02;109732;1244;60245;-65
2023/01/26 00:22:26;;;;;;;34.20;15.70;;;;;;;-1.33;79.22;102229.80;109822;1242;59677;-68
2023/01/26 00:24:55;;;;;;;35.00;16.10;;;;;;;-1.36;77.87;102233.90;109957;1241;71514;-69
2023/01/26 00:27:24;;;;;;;33.00;16.10;;;;;;;-1.38;77.75;102230.14;109967;1241;72296;-70
2023/01/26 00:29:53;;;;;;;31.00;14.50;;;;;;;-1.38;78.04;102231.15;109723;1241;70295;-68
2023/01/26 00:32:21;;;;;;;28.90;15.40;;;;;;;-1.33;77.55;102224.67;109942;1241;74385;-68
2023/01/26 00:34:50;;;;;;;33.60;14.70;;;;;;;-1.34;77.77;102220.40;109691;1244;59972;-68
2023/01/26 00:37:19;;;;;;;29.50;15.20;;;;;;;-1.33;77.63;102220.23;109837;1242;58795;-70
2023/01/26 00:39:48;;;;;;;34.50;15.40;;;;;;;-1.39;77.49;102222.45;109813;1239;71700;-66
2023/01/26 00:42:17;;;;;;;33.30;14.70;;;;;;;-1.42;77.95;102218.16;109829;1241;72280;-69
2023/01/26 00:44:45;;;;;;;28.40;12.50;;;;;;;-1.40;78.52;102217.49;109842;1241;70571;-67
2023/01/26 00:47:14;;;;;;;30.40;14.40;;;;;;;-1.34;78.37;102214.76;109801;1242;72668;-68
2023/01/26 00:49:44;;;;;;;32.60;14.90;;;;;;;-1.41;79.14;102209.80;109956;1242;59406;-66
2023/01/26 00:52:13;;;;;;;28.80;15.00;;;;;;;-1.38;79.33;102204.33;109658;1240;60462;-68
2023/01/26 00:54:42;;;;;;;31.70;16.10;;;;;;;-1.48;79.42;102200.90;109867;1242;70397;-67
2023/01/26 00:57:11;;;;;;;28.00;13.90;;;;;;;-1.44;79.83;102190.83;109821;1239;71356;-65
2023/01/26 00:59:40;;;;;;;30.00;13.60;;;;;;;-1.39;79.02;102188.77;109986;1240;70747;-66
2023/01/26 01:02:08;;;;;;;33.20;15.30;;;;;;;-1.36;79.22;102189.80;109833;1241;74017;-65
2023/01/26 01:04:37;;;;;;;25.80;12.70;;;;;;;-1.39;79.04;102192.70;109995;1239;59935;-69
2023/01/26 01:07:06;;;;;;;26.20;12.60;;;;;;;-1.39;78.91;102192.02;109836;1242;58836;-69
2023/01/26 01:09:35;;;;;;;28.80;13.30;;;;;;;-1.39;78.82;102187.77;110041;1239;70935;-66
2023/01/26 01:12:04;;;;;;;26.40;13.10;;;;;;;-1.39;79.89;102186.73;110013;1241;72198;-66
2023/01/26 01:14:33;;;;;;;27.10;12.60;;;;;;;-1.37;78.94;102182.46;110018;1242;68928;-65
2023/01/26 01:17:02;;;;;;;27.20;13.30;;;;;;;-1.27;78.88;102180.41;109834;1242;73869;-68
2023/01/26 01:19:31;;;;;;;28.20;14.10;;;;;;;-1.24;78.38;102175.45;109924;1242;60773;-66
2023/01/26 01:21:59;;;;;;;29.60;13.40;;;;;;;-1.29;78.48;102174.08;109990;1242;62224;-65
2023/01/26 01:24:28;;;;;;;23.90;12.10;;;;;;;-1.29;78.91;102169.13;109818;1240;71384;-66
2023/01/26 01:26:57;;;;;;;26.10;13.60;;;;;;;-1.20;78.75;102165.88;109836;1242;69470;-66
2023/01/26 01:29:26;;;;;;;24.60;12.30;;;;;;;-1.22;78.94;102169.46;109999;1242;69655;-67
2023/01/26 01:31:55;;;;;;;23.10;11.20;;;;;;;-1.14;78.72;102167.06;109791;1242;72298;-66
2023/01/26 01:34:24;;;;;;;28.40;12.40;;;;;;;-1.11;78.07;102165.52;109813;1242;61448;-68
2023/01/26 01:36:53;;;;;;;22.60;10.90;;;;;;;-1.04;78.29;102162.45;109814;1241;60581;-68
2023/01/26 01:39:21;;;;;;;23.30;11.60;;;;;;;-1.04;77.73;102156.79;109914;1242;74534;-68
2023/01/26 01:41:51;;;;;;;26.90;11.40;;;;;;;-1.04;78.04;102149.61;109788;1239;72837;-68
2023/01/26 01:44:23;;;;;;;22.90;11.20;;;;;;;-1.09;77.38;102144.14;109573;1241;70791;-68
2023/01/26 01:47:03;;;;;;;26.70;11.20;;;;;;;-1.11;77.11;102148.08;109598;1239;73764;-67
2023/01/26 01:49:41;;;;;;;21.90;11.30;;;;;;;-1.30;77.30;102149.30;109547;1244;60711;-68
2023/01/26 01:52:25;;;;;;;23.00;12.10;;;;;;;-1.41;77.39;102151.35;109652;1242;60118;-67
2023/01/26 01:55:00;;;;;;;29.00;16.40;;;;;;;-1.45;77.62;102145.04;109790;1240;73483;-68
2023/01/26 01:57:43;;;;;;;28.60;13.60;;;;;;;-1.41;77.43;102143.65;109730;1242;71544;-66
2023/01/26 02:00:17;;;;;;;21.90;12.10;;;;;;;-1.43;77.77;102144.86;109693;1245;69628;-66
2023/01/26 02:03:13;;;;;;;22.60;10.50;;;;;;;-1.42;77.87;102146.90;109814;1241;71879;-66
2023/01/26 02:05:54;;;;;;;23.10;10.80;;;;;;;-1.45;77.87;102148.77;109745;1241;58657;-65
2023/01/26 02:08:30;;;;;;;18.30;9.10;;;;;;;-1.41;77.62;102146.91;109732;1244;58939;-65
2023/01/26 02:11:06;;;;;;;18.40;9.10;;;;;;;-1.40;77.57;102144.17;109676;1239;70614;-64
2023/01/26 02:13:38;;;;;;;24.10;10.80;;;;;;;-1.38;77.84;102141.95;109574;1242;70429;-66
2023/01/26 02:16:07;;;;;;;18.80;9.50;;;;;;;-1.43;78.12;102137.84;109590;1241;70509;-67
2023/01/26 02:18:36;;;;;;;20.30;9.80;;;;;;;-1.45;78.22;102133.06;109782;1241;73168;-68
2023/01/26 02:21:08;;;;;;;17.30;9.20;;;;;;;-1.35;77.93;102127.23;109659;1242;62884;-68
2023/01/26 02:23:54;;;;;;;20.20;9.50;;;;;;;-1.35;78.12;102125.04;109489;1240;61695;-67
2023/01/26 02:26:32;;;;;;;15.10;7.90;;;;;;;-1.33;77.72;102121.45;109811;1241;73267;-66
2023/01/26 02:29:05;;;;;;;18.00;9.10;;;;;;;-1.33;78.00;102117.51;109695;1244;70684;-66
2023/01/26 02:31:40;;;;;;;23.00;9.90;;;;;;;-1.35;78.24;102116.31;109714;1241;68646;-66
2023/01/26 02:34:08;;;;;;;19.80;8.60;;;;;;;-1.41;77.74;102114.77;109606;1242;73830;-66
2023/01/26 02:36:37;;;;;;;18.20;8.20;;;;;;;-1.41;77.93;102112.56;109763;1242;63061;-66
2023/01/26 02:39:46;;;;;;;18.90;9.10;;;;;;;-1.39;77.78;102115.11;109796;1241;61479;-69
2023/01/26 02:45:03;;;;;;;21.40;9.90;;;;;;;-1.33;78.62;102112.89;109740;1241;73528;-67
2023/01/26 02:47:32;;;;;;;20.30;9.70;;;;;;;-1.35;79.03;102107.94;109910;1239;68288;-67
2023/01/26 02:50:05;;;;;;;18.20;9.00;;;;;;;-1.38;78.53;102099.56;109653;1242;71162;-68
2023/01/26 02:52:34;;;;;;;16.30;8.70;;;;;;;-1.38;78.72;102097.67;109497;1246;62163;-67
2023/01/26 02:55:27;;;;;;;17.70;9.60;;;;;;;-1.36;78.52;102098.02;109656;1242;61239;-70
2023/01/26 02:58:00;;;;;;;19.30;9.70;;;;;;;-1.33;78.39;102092.55;109819;1239;72246;-68
2023/01/26 03:00:36;;;;;;;18.60;9.30;;;;;;;-1.32;78.96;102092.04;109641;1240;72160;-69
2023/01/26 03:03:24;;;;;;;22.70;9.70;;;;;;;-1.34;78.55;102092.20;109622;1241;69946;-69
2023/01/26 03:05:53;;;;;;;18.80;9.40;;;;;;;-1.41;78.75;102084.71;109725;1241;72697;-71
2023/01/26 03:08:22;;;;;;;19.90;8.90;;;;;;;-1.41;78.70;102080.42;109704;1241;62248;-68
2023/01/26 03:10:50;;;;;;;21.80;10.20;;;;;;;-1.37;78.46;102082.30;109623;1241;61604;-68
2023/01/26 03:13:20;;;;;;;18.70;9.40;;;;;;;-1.45;78.94;102081.46;109717;1239;74049;-66
2023/01/26 03:15:53;;;;;;;18.50;7.70;;;;;;;-1.44;79.08;102078.20;109610;1239;69989;-68
2023/01/26 03:29:40;;;;;;;21.50;9.70;;;;;;;-1.25;78.99;102070.33;109689;1239;71429;-68
2023/01/26 03:32:10;;;;;;;22.30;9.60;;;;;;;-1.33;79.19;102069.80;109651;1242;72280;-68
2023/01/26 03:34:39;;;;;;;18.30;9.30;;;;;;;-1.33;79.16;102065.55;109503;1241;69931;-69
2023/01/26 03:37:08;;;;;;;21.30;9.90;;;;;;;-1.37;79.16;102068.48;109721;1241;73279;-68
2023/01/26 03:56:32;;;;;;;27.40;13.00;;;;;;;-1.31;82.54;102043.83;109854;1242;61747;-67
2023/01/26 03:59:08;;;;;;;26.80;12.60;;;;;;;-1.35;83.09;102045.05;109810;1240;62052;-69
2023/01/26 04:10:08;;;;;;;28.60;13.10;;;;;;;-1.43;84.49;102043.01;109854;1240;74601;-68
2023/01/26 04:12:37;;;;;;;31.70;14.10;;;;;;;-1.45;85.10;102047.45;109852;1242;60855;-68
2023/01/26 04:23:44;;;;;;;26.40;13.90;;;;;;;-1.31;85.56;102053.23;109799;1240;68967;-68
2023/01/26 04:26:14;;;;;;;25.50;12.90;;;;;;;-1.27;85.64;102050.50;109861;1241;71928;-68
2023/01/26 04:28:43;;;;;;;30.30;13.80;;;;;;;-1.25;85.69;102052.02;109830;1242;60149;-69
2023/01/26 04:31:11;;;;;;;30.30;13.60;;;;;;;-1.26;85.46;102047.23;109866;1241;61481;-69
2023/01/26 04:33:41;;;;;;;31.60;12.90;;;;;;;-1.29;84.88;102056.66;109872;1240;74699;-68
2023/01/26 04:36:10;;;;;;;28.70;12.80;;;;;;;-1.23;85.62;102057.33;109868;1241;70765;-70
2023/01/26 04:38:43;;;;;;;26.50;14.00;;;;;;;-1.20;84.74;102060.21;109803;1242;68682;-69
2023/01/26 04:41:14;;;;;;;26.30;12.90;;;;;;;-1.22;84.62;102060.56;109854;1242;72330;-69
2023/01/26 04:43:47;;;;;;;29.80;13.20;;;;;;;-1.23;84.62;102051.16;109735;1242;57640;-69
2023/01/26 04:46:16;;;;;;;26.00;11.90;;;;;;;-1.25;84.62;102050.32;109832;1241;61002;-69
2023/01/26 04:48:45;;;;;;;26.70;12.90;;;;;;;-1.17;84.88;102059.36;109614;1241;74755;-69
2023/01/26 04:51:18;;;;;;;29.00;13.90;;;;;;;-1.14;84.24;102059.19;109662;1241;73075;-70
2023/01/26 04:53:49;;;;;;;30.50;12.50;;;;;;;-1.17;83.94;102058.33;109773;1241;68953;-70
2023/01/26 04:56:24;;;;;;;29.00;12.10;;;;;;;-1.15;83.98;102059.70;109617;1241;71894;-70
2023/01/26 04:58:57;;;;;;;25.50;11.30;;;;;;;-1.20;84.04;102060.05;109857;1239;59450;-69
2023/01/26 05:01:27;;;;;;;26.20;12.30;;;;;;;-1.21;84.59;102066.89;109814;1241;61231;-69
2023/01/26 05:04:00;;;;;;;26.30;12.10;;;;;;;-1.17;84.44;102067.22;109680;1239;71462;-69
2023/01/26 05:06:30;;;;;;;30.00;12.70;;;;;;;-1.20;84.97;102062.62;109660;1244;70284;-69
2023/01/26 05:09:00;;;;;;;26.90;11.90;;;;;;;-1.25;85.12;102060.23;109803;1239;69649;-70
2023/01/26 05:11:30;;;;;;;35.10;13.50;;;;;;;-1.30;85.60;102057.16;109722;1242;74835;-69
2023/01/26 05:14:05;;;;;;;24.10;11.70;;;;;;;-1.27;87.52;102056.48;109900;1241;62472;-69
2023/01/26 05:16:45;;;;;;;28.00;12.20;;;;;;;-1.26;86.48;102057.66;109856;1241;60650;-69
2023/01/26 05:19:33;;;;;;;31.30;12.90;;;;;;;-1.19;88.26;102060.04;109940;1241;72884;-69
2023/01/26 05:22:13;;;;;;;26.60;12.20;;;;;;;-1.09;90.42;102055.23;109975;1239;70606;-70
2023/01/26 05:24:57;;;;;;;30.90;13.60;;;;;;;-1.05;90.21;102058.98;109857;1240;69603;-69
2023/01/26 05:27:34;;;;;;;25.20;11.90;;;;;;;-1.04;88.01;102057.44;109541;1241;532983;-70
2023/01/26 05:30:03;;;;;;;28.00;11.60;;;;;;;-0.98;88.13;102057.42;109686;1244;60876;-70
2023/01/26 05:32:34;;;;;;;22.50;12.10;;;;;;;-1.01;88.34;102051.29;109771;1239;60385;-76
2023/01/26 05:35:05;;;;;;;35.40;13.80;;;;;;;-1.02;88.69;102058.30;109745;1239;73602;-70
2023/01/26 05:37:34;;;;;;;28.60;13.80;;;;;;;-0.98;89.19;102055.73;109730;1240;71029;-71
2023/01/26 05:40:04;;;;;;;28.20;12.10;;;;;;;-0.98;89.11;102057.60;109801;1240;69211;-70
2023/01/26 05:42:33;;;;;;;30.20;13.20;;;;;;;-1.05;88.39;102064.46;109726;1241;71098;-72
2023/01/26 05:45:24;;;;;;;37.50;13.90;;;;;;;-1.08;87.80;102060.54;109737;1244;58105;-71
2023/01/26 05:47:56;;;;;;;24.40;11.90;;;;;;;-1.03;88.33;102070.43;109823;1241;59847;-70
2023/01/26 05:50:25;;;;;;;25.30;12.50;;;;;;;-1.21;84.90;102072.36;109614;1241;73974;-70
2023/01/26 05:53:18;;;;;;;24.60;11.70;;;;;;;-1.25;85.56;102066.56;109676;1241;71521;-71
2023/01/26 05:55:47;;;;;;;25.30;12.50;;;;;;;-1.25;85.09;102073.91;109729;1241;71065;-72
2023/01/26 05:58:19;;;;;;;26.20;12.00;;;;;;;-1.27;84.84;102077.34;109659;1242;72749;-72
2023/01/26 06:00:48;;;;;;;24.60;12.50;;;;;;;-1.22;84.72;102069.11;109691;1240;59947;-71
2023/01/26 06:03:22;;;;;;;26.10;12.80;;;;;;;-1.22;84.49;102074.08;109708;1241;59437;-71
2023/01/26 06:05:53;;;;;;;36.40;14.10;;;;;;;-1.30;84.73;102072.55;109661;1242;71558;-71
2023/01/26 06:08:37;;;;;;;27.60;13.50;;;;;;;-1.33;85.14;102066.73;109472;1244;69534;-73
2023/01/26 06:11:24;;;;;;;36.80;14.20;;;;;;;-1.30;85.60;102073.06;109743;1241;68624;-71
2023/01/26 06:14:13;;;;;;;33.30;14.80;;;;;;;-1.30;85.68;102066.57;109582;1239;71132;-70
2023/01/26 06:16:43;;;;;;;33.10;14.60;;;;;;;-1.29;85.70;102065.36;109585;1241;60358;-71
2023/01/26 06:19:12;;;;;;;27.30;12.30;;;;;;;-1.24;86.00;102061.60;109606;1239;60489;-70
2023/01/26 06:21:42;;;;;;;30.70;12.20;;;;;;;-1.28;85.81;102060.06;109514;1244;70964;-71
2023/01/26 06:24:12;;;;;;;29.20;14.20;;;;;;;-1.24;85.83;102058.52;109575;1241;70260;-71
2023/01/26 06:26:41;;;;;;;47.50;17.20;;;;;;;-1.15;85.89;102059.52;109742;1241;68568;-72
2023/01/26 06:29:11;;;;;;;28.10;11.70;;;;;;;-1.08;85.58;102059.51;109476;1241;73383;-72
2023/01/26 06:31:40;;;;;;;43.80;14.40;;;;;;;-1.05;85.45;102057.97;109556;1241;60934;-72
2023/01/26 06:34:10;;;;;;;30.00;13.80;;;;;;;-1.10;86.08;102060.71;109512;1244;58071;-72
2023/01/26 06:36:41;;;;;;;32.60;13.60;;;;;;;-1.06;85.92;102067.37;109606;1242;71631;-72
2023/01/26 06:39:16;;;;;;;30.50;13.60;;;;;;;-0.99;85.58;102066.83;109582;1239;71441;-71
2023/01/26 06:41:45;;;;;;;27.70;13.00;;;;;;;-1.03;85.65;102061.20;109572;1239;71233;-72
2023/01/26 06:44:14;;;;;;;28.50;12.90;;;;;;;-1.02;85.74;102054.52;109599;1239;71635;-71
2023/01/26 06:46:43;;;;;;;36.20;14.30;;;;;;;-0.97;86.25;102054.70;109668;1241;59594;-71
2023/01/26 06:49:12;;;;;;;31.20;14.50;;;;;;;-0.84;86.67;102050.89;109633;1240;59611;-72
2023/01/26 06:51:58;;;;;;;26.70;11.80;;;;;;;-0.87;85.17;102047.30;109657;1241;71568;-71
2023/01/26 06:54:39;;;;;;;31.10;14.00;;;;;;;-0.75;85.93;102044.17;109529;1240;72195;-72
2023/01/26 06:57:21;;;;;;;27.30;11.70;;;;;;;-0.66;85.08;102042.41;109539;1241;69347;-71
2023/01/26 07:00:04;;;;;;;35.90;13.80;;;;;;;-0.56;84.45;102043.91;109674;1241;73893;-71
2023/01/26 07:03:14;;;;;;;32.90;14.40;;;;;;;-0.53;84.14;102046.81;109639;1241;62041;-72
2023/01/26 07:05:43;;;;;;;31.80;14.40;;;;;;;-0.49;84.12;102050.90;109642;1241;61629;-73
2023/01/26 07:08:11;;;;;;;38.70;14.40;;;;;;;-0.46;84.19;102044.73;109647;1240;73890;-73
2023/01/26 07:10:40;;;;;;;33.90;15.50;;;;;;;-0.49;84.43;102043.71;109602;1241;72405;-72
2023/01/26 07:13:09;;;;;;;35.50;14.40;;;;;;;-0.39;85.85;102042.80;109701;1242;68649;-72
2023/01/26 07:15:38;;;;;;;38.80;15.20;;;;;;;-0.28;85.27;102038.27;109705;1243;71862;-73
2023/01/26 07:18:07;;;;;;;31.80;14.40;;;;;;;-0.24;85.14;102040.14;109817;1241;61762;-72
2023/01/26 07:20:36;;;;;;;39.50;14.70;;;;;;;-0.23;85.96;102042.01;109704;1241;61428;-73
2023/01/26 07:23:05;;;;;;;38.30;16.00;;;;;;;-0.10;85.64;102044.83;109690;1241;72538;-73
2023/01/26 07:25:34;;;;;;;40.20;16.20;;;;;;;-0.10;86.25;102042.43;109702;1241;71905;-74
2023/01/26 07:28:02;;;;;;;43.40;15.80;;;;;;;-0.04;85.11;102039.14;109776;1240;70352;-73
2023/01/26 07:30:31;;;;;;;33.60;15.40;;;;;;;-0.03;84.59;102043.07;109760;1241;72931;-74
2023/01/26 07:33:00;;;;;;;29.50;13.20;;;;;;;0.11;84.21;102039.55;109809;1241;58352;-74
2023/01/26 07:35:29;;;;;;;41.20;16.80;;;;;;;0.08;83.34;102037.68;109823;1241;58765;-74
2023/01/26 07:37:58;;;;;;;33.10;14.00;;;;;;;-0.02;84.51;102035.88;109822;1241;72013;-74
2023/01/26 07:40:27;;;;;;;47.60;16.10;;;;;;;0.14;84.02;102037.98;109727;1241;72247;-74
2023/01/26 07:42:57;;;;;;;70.70;19.20;;;;;;;0.32;84.53;102036.10;109729;1241;70214;-73
2023/01/26 07:46:00;;;;;;;25.90;12.10;;;;;;;0.07;82.58;102035.11;109739;1241;74264;-73
2023/01/26 07:48:29;;;;;;;43.60;15.30;;;;;;;0.00;83.33;102036.20;109831;1242;59501;-73
2023/01/26 07:51:00;;;;;;;32.70;15.00;;;;;;;0.01;84.12;102028.15;109738;1244;60103;-73
2023/01/26 07:53:32;;;;;;;32.80;14.00;;;;;;;0.05;82.70;102023.48;109802;1241;70404;-74
2023/01/26 07:56:14;;;;;;;111.60;23.50;;;;;;;-0.05;82.08;102023.23;109740;1244;70149;-74
2023/01/26 07:58:47;;;;;;;29.90;14.10;;;;;;;0.17;83.03;102017.38;109784;1242;68603;-74
2023/01/26 08:01:17;;;;;;;33.00;14.80;;;;;;;0.06;81.97;102018.68;109835;1242;71083;-74
2023/01/26 08:03:52;;;;;;;46.80;17.00;;;;;;;0.35;81.73;102016.89;109843;1242;60404;-73
2023/01/26 08:06:21;;;;;;;29.70;14.40;;;;;;;0.42;80.29;102015.80;109589;1241;61494;-74
2023/01/26 08:08:52;;;;;;;35.20;15.00;;;;;;;0.42;80.32;102019.05;109571;1245;73966;-74
2023/01/26 08:11:23;;;;;;;28.50;13.30;;;;;;;0.34;80.31;102017.25;109844;1240;71476;-75
2023/01/26 08:13:52;;;;;;;27.70;13.50;;;;;;;0.37;80.23;102015.15;109822;1241;70136;-74
2023/01/26 08:16:20;;;;;;;28.90;12.60;;;;;;;0.48;80.53;102015.40;109887;1238;73520;-73
2023/01/26 08:18:49;;;;;;;32.10;14.10;;;;;;;0.63;80.24;102011.66;110000;1241;58646;-73
2023/01/26 08:21:19;;;;;;;33.80;14.80;;;;;;;0.62;79.78;102016.96;110027;1239;58873;-72
2023/01/26 08:23:49;;;;;;;34.50;15.30;;;;;;;0.32;80.70;102015.88;109946;1241;72656;-72
2023/01/26 08:26:19;;;;;;;34.20;14.70;;;;;;;0.29;81.53;102015.23;109830;1242;72224;-73
2023/01/26 08:28:48;;;;;;;36.50;15.30;;;;;;;0.36;81.57;102009.52;109954;1239;69074;-74
2023/01/26 08:31:19;;;;;;;35.00;15.10;;;;;;;0.45;81.83;102007.70;110061;1240;71904;-73
2023/01/26 08:33:50;;;;;;;32.50;15.80;;;;;;;0.59;80.90;102010.48;109823;1242;61854;-72
2023/01/26 08:36:20;;;;;;;42.50;16.00;;;;;;;0.65;81.34;102014.89;109978;1238;61575;-74
2023/01/26 08:38:51;;;;;;;35.00;14.60;;;;;;;0.68;81.67;102017.95;109855;1238;72221;-72
2023/01/26 08:41:20;;;;;;;35.30;14.20;;;;;;;0.72;81.22;102019.95;109822;1244;70280;-73
2023/01/26 08:43:50;;;;;;;36.90;14.50;;;;;;;0.81;81.04;102014.70;109899;1238;71085;-73
2023/01/26 08:46:18;;;;;;;36.70;16.70;;;;;;;0.86;80.89;102018.77;109835;1238;73763;-73
2023/01/26 08:48:47;;;;;;;37.10;15.80;;;;;;;0.69;81.25;102014.15;110064;1240;61391;-72
2023/01/26 08:51:16;;;;;;;40.00;16.20;;;;;;;0.82;81.29;102009.40;109978;1238;59570;-73
2023/01/26 08:53:45;;;;;;;39.90;16.50;;;;;;;0.94;81.56;102005.13;109842;1238;72531;-72
2023/01/26 08:56:14;;;;;;;38.30;15.40;;;;;;;1.03;81.47;102002.61;110076;1238;69546;-72
2023/01/26 08:58:43;;;;;;;55.70;20.10;;;;;;;1.09;81.29;102000.81;110015;1238;67905;-71
2023/01/26 09:01:14;;;;;;;42.70;17.80;;;;;;;1.22;80.97;101999.80;109978;1238;73878;-72
2023/01/26 09:03:44;;;;;;;36.80;17.20;;;;;;;1.18;80.54;101994.88;109985;1241;59282;-73
2023/01/26 09:06:14;;;;;;;986.00;155.60;;;;;;;1.09;81.08;101987.29;109989;1239;60311;-70
2023/01/26 09:08:43;;;;;;;38.40;17.30;;;;;;;1.05;81.40;101987.33;109800;1242;72159;-70
2023/01/26 09:11:12;;;;;;;36.90;17.10;;;;;;;1.13;80.77;101982.42;110003;1239;69489;-71
2023/01/26 09:13:41;;;;;;;33.40;15.90;;;;;;;1.21;80.45;101980.77;109765;1238;70187;-71
2023/01/26 09:16:19;;;;;;;31.30;14.30;;;;;;;1.16;78.92;101973.12;110016;1238;71126;-70
2023/01/26 09:18:52;;;;;;;27.90;13.00;;;;;;;0.92;79.43;101970.33;109696;1244;60543;-71
2023/01/26 09:21:22;;;;;;;27.40;14.10;;;;;;;0.82;79.60;101965.81;109923;1238;58720;-71
2023/01/26 09:23:51;;;;;;;30.20;14.20;;;;;;;1.00;79.05;101965.94;109922;1238;73068;-71
2023/01/26 09:26:20;;;;;;;32.90;15.80;;;;;;;0.93;79.45;101961.58;109877;1238;70273;-73
2023/01/26 09:28:52;;;;;;;35.70;14.80;;;;;;;0.68;80.19;101962.89;109908;1238;68624;-73
2023/01/26 09:31:21;;;;;;;32.90;14.50;;;;;;;0.66;80.60;101959.83;109937;1240;71942;-72
2023/01/26 09:33:51;;;;;;;31.80;14.70;;;;;;;0.70;80.59;101961.67;109935;1239;58252;-71
2023/01/26 09:36:20;;;;;;;35.50;15.30;;;;;;;0.85;80.21;101954.12;109927;1241;60234;-71
2023/01/26 09:38:49;;;;;;;30.70;13.80;;;;;;;0.82;79.80;101949.37;109933;1238;73964;-71
2023/01/26 09:42:03;;;;;;;28.30;11.80;;;;;;;0.67;80.61;101951.23;110047;1238;71544;-71
2023/01/26 09:44:44;;;;;;;28.90;12.40;;;;;;;0.82;80.38;101944.21;109840;1238;70571;-70
2023/01/26 09:47:27;;;;;;;33.50;15.80;;;;;;;0.93;79.94;101941.50;109960;1238;72598;-71
2023/01/26 09:50:18;;;;;;;35.30;15.40;;;;;;;0.94;80.75;101935.83;109969;1239;57307;-71
2023/01/26 09:53:05;;;;;;;40.40;17.90;;;;;;;1.03;82.69;101933.14;109882;1238;59000;-71
2023/01/26 09:55:34;;;;;;;41.60;18.60;;;;;;;1.06;82.50;101932.75;109776;1238;71607;-72
2023/01/26 09:58:34;;;;;;;194.00;36.10;;;;;;;1.06;82.69;101927.95;109922;1238;71589;-72
2023/01/26 10:01:06;;;;;;;45.70;18.90;;;;;;;1.32;83.25;101920.20;109992;1238;70473;-71
2023/01/26 10:03:46;;;;;;;219.90;39.90;;;;;;;1.49;83.40;101920.62;110027;1238;74149;-71
2023/01/26 10:06:27;;;;;;;171.00;42.70;;;;;;;1.60;83.96;101922.52;109932;1238;61503;-70
2023/01/26 10:09:25;;;;;;;45.70;18.50;;;;;;;1.72;82.96;101916.48;109924;1238;57770;-71
2023/01/26 10:12:13;;;;;;;47.40;19.10;;;;;;;1.73;80.48;101906.52;109964;1238;72493;-72
2023/01/26 10:15:02;;;;;;;40.20;17.30;;;;;;;1.61;79.78;101904.98;109909;1238;61070;-71
2023/01/26 10:17:37;;;;;;;40.90;16.20;;;;;;;1.37;78.19;101904.34;109812;1238;68659;-71
2023/01/26 10:20:24;;;;;;;33.40;14.30;;;;;;;1.14;78.18;101899.71;109841;1238;73826;-70
2023/01/26 10:23:33;;;;;;;31.20;14.50;;;;;;;1.11;77.93;101892.36;109802;1239;59681;-71
2023/01/26 10:26:22;;;;;;;43.60;17.40;;;;;;;1.31;77.96;101891.55;109842;1238;60887;-71
2023/01/26 10:28:51;;;;;;;534.10;79.40;;;;;;;1.48;81.55;101889.41;109782;1238;63416;-70
2023/01/26 10:31:28;;;;;;;96.90;22.70;;;;;;;1.60;78.42;101887.14;110028;1238;70202;-73
2023/01/26 10:34:17;;;;;;;53.80;19.00;;;;;;;1.55;78.21;101881.73;109824;1238;69759;-71
2023/01/26 10:36:46;;;;;;;96.10;25.30;;;;;;;1.51;77.80;101880.07;109804;1238;64593;-70
2023/01/26 10:39:17;;;;;;;61.30;20.00;;;;;;;1.75;78.90;101870.75;109696;1244;59968;-73
2023/01/26 10:42:02;;;;;;;36.20;16.60;;;;;;;1.84;77.05;101863.04;109796;1238;61621;-72
2023/01/26 10:44:35;;;;;;;78.70;20.60;;;;;;;1.71;76.72;101856.21;109938;1238;72346;-70
2023/01/26 10:47:20;;;;;;;30.90;14.00;;;;;;;1.58;77.02;101853.86;109824;1238;70273;-71
2023/01/26 10:49:49;;;;;;;33.70;15.80;;;;;;;1.86;76.60;101851.32;109908;1238;70407;-72
2023/01/26 10:52:26;;;;;;;30.80;14.80;;;;;;;1.81;75.92;101850.20;109901;1238;74168;-71
2023/01/26 10:55:20;;;;;;;32.40;14.10;;;;;;;1.96;75.10;101845.13;109782;1238;57643;-71
2023/01/26 10:57:49;;;;;;;26.80;13.60;;;;;;;1.85;74.49;101833.80;109914;1238;61096;-71
2023/01/26 11:00:18;;;;;;;31.40;14.20;;;;;;;1.84;74.73;101834.87;110001;1238;73271;-71
2023/01/26 11:03:16;;;;;;;29.10;14.30;;;;;;;1.93;74.33;101827.98;110044;1238;70931;-71
2023/01/26 11:05:48;;;;;;;32.20;15.30;;;;;;;1.70;73.73;101816.73;110016;1238;59604;-71
2023/01/26 11:08:35;;;;;;;30.60;14.40;;;;;;;1.52;74.91;101817.40;109917;1238;72022;-71
2023/01/26 11:11:09;;;;;;;26.30;12.50;;;;;;;1.61;74.37;101814.16;109891;1238;59014;-71
2023/01/26 11:13:38;;;;;;;30.10;13.50;;;;;;;1.63;74.27;101813.59;109697;1238;60408;-71
2023/01/26 11:16:24;;;;;;;29.90;13.70;;;;;;;1.77;73.99;101809.21;109995;1238;71675;-70
2023/01/26 11:19:02;;;;;;;29.40;13.00;;;;;;;1.72;73.69;101808.80;110034;1238;71440;-70
2023/01/26 11:21:40;;;;;;;28.40;12.70;;;;;;;1.73;73.16;101802.77;110008;1238;70959;-72
2023/01/26 11:24:27;;;;;;;26.60;12.40;;;;;;;1.69;73.04;101801.30;109971;1238;63034;-72
2023/01/26 11:27:27;;;;;;;24.40;12.10;;;;;;;1.63;72.86;101787.48;109992;1238;59616;-72
2023/01/26 11:30:13;;;;;;;30.40;13.80;;;;;;;1.44;72.62;101780.96;110014;1238;61912;-73
2023/01/26 11:33:19;;;;;;;77.20;15.90;;;;;;;1.51;73.46;101777.42;109885;1238;62715;-73
2023/01/26 11:36:22;;;;;;;304.80;56.80;;;;;;;1.82;75.95;101773.75;109775;1238;61513;-75
2023/01/26 11:39:11;;;;;;;44.00;12.70;;;;;;;1.75;73.19;101774.20;109783;1238;59105;-74
2023/01/26 11:42:18;;;;;;;40.90;13.20;;;;;;;1.63;72.76;101772.40;109871;1238;63167;-73
2023/01/26 11:45:11;;;;;;;137.30;23.50;;;;;;;1.57;72.34;101772.34;109745;1238;60511;-75
2023/01/26 11:47:54;;;;;;;41.20;14.30;;;;;;;1.60;72.77;101770.20;109912;1238;57705;-74
2023/01/26 11:50:57;;;;;;;37.80;12.80;;;;;;;1.76;72.76;101765.63;109795;1238;73615;-75
2023/01/26 11:53:56;;;;;;;64.30;17.20;;;;;;;1.69;73.57;101764.22;109800;1238;72767;-74
2023/01/26 11:56:48;;;;;;;56.00;16.00;;;;;;;1.72;73.33;101759.50;109985;1238;69077;-73
2023/01/26 11:59:24;;;;;;;39.40;14.50;;;;;;;1.63;73.48;101757.28;109846;1238;62643;-74
2023/01/26 12:02:03;;;;;;;32.10;14.20;;;;;;;1.52;74.12;101757.83;109834;1238;59575;-72
2023/01/26 12:04:44;;;;;;;42.40;15.80;;;;;;;1.50;75.06;101757.51;109837;1238;60738;-74
2023/01/26 12:07:50;;;;;;;37.50;15.90;;;;;;;1.58;75.00;101754.27;109795;1238;73306;-72
2023/01/26 12:10:30;;;;;;;36.30;18.10;;;;;;;1.43;75.66;101753.00;109682;1237;73191;-73
2023/01/26 12:13:21;;;;;;;41.10;14.10;;;;;;;1.54;75.66;101749.88;109839;1237;70017;-73
2023/01/26 12:16:06;;;;;;;55.70;20.00;;;;;;;1.64;75.72;101749.20;110102;1237;63615;-73
2023/01/26 12:18:44;;;;;;;517.10;66.50;;;;;;;1.70;75.69;101750.44;109983;1239;57408;-72
2023/01/26 12:21:29;;;;;;;251.50;48.10;;;;;;;2.04;79.70;101750.11;110130;1238;59421;-71
2023/01/26 12:24:04;;;;;;;251.10;57.20;;;;;;;2.45;78.53;101749.26;110086;1237;73384;-73
2023/01/26 12:26:43;;;;;;;1062.10;153.50;;;;;;;2.76;76.15;101750.27;110067;1237;61222;-73
2023/01/26 12:29:19;;;;;;;75.30;19.00;;;;;;;2.78;73.33;101749.52;110098;1237;70512;-72